sensor_id;sensor_type;location;lat;lon;timestamp;P1;durP1;ratioP1;P2;durP2;ratioP2
5217;SDS011;26539;51.064;6.346;2023-11-21T00:01:25;26.63;;;12.47;;
5217;SDS011;26539;51.064;6.346;2023-11-21T00:03:50;25.53;;;12.70;;
5217;SDS011;26539;51.064;6.346;2023-11-21T00:06:19;19.43;;;13.20;;
5217;SDS011;26539;51.064;6.346;2023-11-21T00:08:45;17.27;;;13.20;;
5217;SDS011;26539;51.064;6.346;2023-11-21T00:11:11;24.00;;;12.27;;
5217;SDS011;26539;51.064;6.346;2023-11-21T00:13:37;19.63;;;12.57;;
5217;SDS011;26539;51.064;6.346;2023-11-21T00:16:02;17.50;;;11.90;;
5217;SDS011;26539;51.064;6.346;2023-11-21T00:18:29;15.30;;;12.00;;
5217;SDS011;26539;51.064;6.346;2023-11-21T00:20:54;20.23;;;12.70;;
5217;SDS011;26539;51.064;6.346;2023-11-21T00:23:20;19.83;;;12.80;;
5217;SDS011;26539;51.064;6.346;2023-11-21T00:25:45;19.10;;;12.00;;
5217;SDS011;26539;51.064;6.346;2023-11-21T00:28:14;28.33;;;13.70;;
5217;SDS011;26539;51.064;6.346;2023-11-21T00:30:40;19.37;;;12.80;;
5217;SDS011;26539;51.064;6.346;2023-11-21T00:33:05;17.23;;;13.30;;
5217;SDS011;26539;51.064;6.346;2023-11-21T00:35:31;21.27;;;14.40;;
5217;SDS011;26539;51.064;6.346;2023-11-21T00:37:56;23.00;;;15.77;;
5217;SDS011;26539;51.064;6.346;2023-11-21T00:40:23;21.43;;;16.13;;
5217;SDS011;26539;51.064;6.346;2023-11-21T00:42:49;20.20;;;15.10;;
5217;SDS011;26539;51.064;6.346;2023-11-21T00:45:18;22.23;;;14.37;;
5217;SDS011;26539;51.064;6.346;2023-11-21T00:47:44;22.70;;;15.77;;
5217;SDS011;26539;51.064;6.346;2023-11-21T00:50:09;26.53;;;15.77;;
5217;SDS011;26539;51.064;6.346;2023-11-21T00:52:35;21.33;;;14.40;;
5217;SDS011;26539;51.064;6.346;2023-11-21T00:55:01;21.30;;;12.77;;
5217;SDS011;26539;51.064;6.346;2023-11-21T00:57:28;20.90;;;12.40;;
5217;SDS011;26539;51.064;6.346;2023-11-21T00:59:53;15.60;;;12.30;;
5217;SDS011;26539;51.064;6.346;2023-11-21T01:02:22;21.10;;;13.53;;
5217;SDS011;26539;51.064;6.346;2023-11-21T01:04:50;19.40;;;12.07;;
5217;SDS011;26539;51.064;6.346;2023-11-21T01:07:16;20.03;;;12.73;;
5217;SDS011;26539;51.064;6.346;2023-11-21T01:09:45;20.87;;;12.80;;
5217;SDS011;26539;51.064;6.346;2023-11-21T01:12:11;20.53;;;12.87;;
5217;SDS011;26539;51.064;6.346;2023-11-21T01:14:36;23.33;;;12.53;;
5217;SDS011;26539;51.064;6.346;2023-11-21T01:17:02;18.97;;;12.40;;
5217;SDS011;26539;51.064;6.346;2023-11-21T01:19:29;25.43;;;13.63;;
5217;SDS011;26539;51.064;6.346;2023-11-21T01:21:54;23.83;;;12.83;;
5217;SDS011;26539;51.064;6.346;2023-11-21T01:24:20;23.57;;;14.73;;
5217;SDS011;26539;51.064;6.346;2023-11-21T01:26:46;30.97;;;14.53;;
5217;SDS011;26539;51.064;6.346;2023-11-21T01:29:11;21.13;;;15.03;;
5217;SDS011;26539;51.064;6.346;2023-11-21T01:31:37;28.30;;;15.40;;
5217;SDS011;26539;51.064;6.346;2023-11-21T01:34:03;22.17;;;14.70;;
5217;SDS011;26539;51.064;6.346;2023-11-21T01:36:30;29.03;;;14.40;;
5217;SDS011;26539;51.064;6.346;2023-11-21T01:39:00;18.67;;;13.40;;
5217;SDS011;26539;51.064;6.346;2023-11-21T01:41:26;21.00;;;15.20;;
5217;SDS011;26539;51.064;6.346;2023-11-21T01:43:53;26.73;;;16.50;;
5217;SDS011;26539;51.064;6.346;2023-11-21T01:46:19;27.83;;;18.10;;
5217;SDS011;26539;51.064;6.346;2023-11-21T01:48:46;20.30;;;14.10;;
5217;SDS011;26539;51.064;6.346;2023-11-21T01:51:13;26.03;;;14.50;;
5217;SDS011;26539;51.064;6.346;2023-11-21T01:53:39;26.40;;;15.00;;
5217;SDS011;26539;51.064;6.346;2023-11-21T01:56:05;22.47;;;14.40;;
5217;SDS011;26539;51.064;6.346;2023-11-21T01:58:33;24.83;;;14.77;;
5217;SDS011;26539;51.064;6.346;2023-11-21T02:00:58;23.17;;;14.87;;
5217;SDS011;26539;51.064;6.346;2023-11-21T02:03:24;23.03;;;13.73;;
5217;SDS011;26539;51.064;6.346;2023-11-21T02:05:51;22.20;;;14.47;;
5217;SDS011;26539;51.064;6.346;2023-11-21T02:08:18;28.27;;;13.63;;
5217;SDS011;26539;51.064;6.346;2023-11-21T02:10:44;23.00;;;14.33;;
5217;SDS011;26539;51.064;6.346;2023-11-21T02:13:10;29.47;;;16.93;;
5217;SDS011;26539;51.064;6.346;2023-11-21T02:15:36;22.23;;;14.87;;
5217;SDS011;26539;51.064;6.346;2023-11-21T02:18:03;23.97;;;15.57;;
5217;SDS011;26539;51.064;6.346;2023-11-21T02:20:31;26.33;;;15.37;;
5217;SDS011;26539;51.064;6.346;2023-11-21T02:22:59;29.97;;;17.10;;
5217;SDS011;26539;51.064;6.346;2023-11-21T02:25:25;21.33;;;14.97;;
5217;SDS011;26539;51.064;6.346;2023-11-21T02:27:59;26.40;;;16.63;;
5217;SDS011;26539;51.064;6.346;2023-11-21T02:30:26;27.07;;;16.77;;
5217;SDS011;26539;51.064;6.346;2023-11-21T02:32:52;28.50;;;19.00;;
5217;SDS011;26539;51.064;6.346;2023-11-21T02:35:19;33.87;;;20.57;;
5217;SDS011;26539;51.064;6.346;2023-11-21T02:37:46;44.90;;;22.30;;
5217;SDS011;26539;51.064;6.346;2023-11-21T02:40:12;42.13;;;22.27;;
5217;SDS011;26539;51.064;6.346;2023-11-21T02:42:38;45.23;;;24.33;;
5217;SDS011;26539;51.064;6.346;2023-11-21T02:45:06;45.17;;;23.63;;
5217;SDS011;26539;51.064;6.346;2023-11-21T02:47:32;56.37;;;27.50;;
5217;SDS011;26539;51.064;6.346;2023-11-21T02:49:58;56.73;;;25.97;;
5217;SDS011;26539;51.064;6.346;2023-11-21T02:52:24;46.40;;;25.50;;
5217;SDS011;26539;51.064;6.346;2023-11-21T02:54:50;42.13;;;24.73;;
5217;SDS011;26539;51.064;6.346;2023-11-21T02:57:16;48.70;;;24.47;;
5217;SDS011;26539;51.064;6.346;2023-11-21T02:59:41;46.03;;;24.70;;
5217;SDS011;26539;51.064;6.346;2023-11-21T03:02:07;42.50;;;23.20;;
5217;SDS011;26539;51.064;6.346;2023-11-21T03:04:35;44.03;;;23.20;;
5217;SDS011;26539;51.064;6.346;2023-11-21T03:07:01;40.20;;;23.90;;
5217;SDS011;26539;51.064;6.346;2023-11-21T03:09:26;50.23;;;24.43;;
5217;SDS011;26539;51.064;6.346;2023-11-21T03:11:52;51.17;;;24.93;;
5217;SDS011;26539;51.064;6.346;2023-11-21T03:14:18;54.30;;;28.10;;
5217;SDS011;26539;51.064;6.346;2023-11-21T03:16:44;57.80;;;29.43;;
5217;SDS011;26539;51.064;6.346;2023-11-21T03:19:10;74.90;;;33.33;;
5217;SDS011;26539;51.064;6.346;2023-11-21T03:21:36;74.30;;;30.93;;
5217;SDS011;26539;51.064;6.346;2023-11-21T03:24:01;84.77;;;30.80;;
5217;SDS011;26539;51.064;6.346;2023-11-21T03:26:27;87.63;;;34.30;;
5217;SDS011;26539;51.064;6.346;2023-11-21T03:28:54;81.17;;;31.20;;
5217;SDS011;26539;51.064;6.346;2023-11-21T03:31:20;92.77;;;34.53;;
5217;SDS011;26539;51.064;6.346;2023-11-21T03:33:46;86.87;;;33.90;;
5217;SDS011;26539;51.064;6.346;2023-11-21T03:36:12;87.20;;;32.87;;
5217;SDS011;26539;51.064;6.346;2023-11-21T03:38:39;89.47;;;32.97;;
5217;SDS011;26539;51.064;6.346;2023-11-21T03:41:05;82.30;;;33.80;;
5217;SDS011;26539;51.064;6.346;2023-11-21T03:43:31;78.20;;;31.53;;
5217;SDS011;26539;51.064;6.346;2023-11-21T03:45:56;73.27;;;32.20;;
5217;SDS011;26539;51.064;6.346;2023-11-21T03:48:22;72.90;;;30.50;;
5217;SDS011;26539;51.064;6.346;2023-11-21T03:50:47;76.33;;;31.60;;
5217;SDS011;26539;51.064;6.346;2023-11-21T03:53:13;73.57;;;28.60;;
5217;SDS011;26539;51.064;6.346;2023-11-21T03:55:39;73.50;;;30.00;;
5217;SDS011;26539;51.064;6.346;2023-11-21T03:58:05;65.77;;;28.37;;
5217;SDS011;26539;51.064;6.346;2023-11-21T04:00:30;69.23;;;28.97;;
5217;SDS011;26539;51.064;6.346;2023-11-21T04:02:56;63.87;;;29.03;;
5217;SDS011;26539;51.064;6.346;2023-11-21T04:05:23;66.70;;;29.50;;
5217;SDS011;26539;51.064;6.346;2023-11-21T04:07:49;66.47;;;28.90;;
5217;SDS011;26539;51.064;6.346;2023-11-21T04:10:15;71.23;;;32.63;;
5217;SDS011;26539;51.064;6.346;2023-11-21T04:12:41;64.90;;;28.00;;
5217;SDS011;26539;51.064;6.346;2023-11-21T04:15:07;75.93;;;30.23;;
5217;SDS011;26539;51.064;6.346;2023-11-21T04:17:34;69.20;;;30.63;;
5217;SDS011;26539;51.064;6.346;2023-11-21T04:20:00;70.93;;;29.73;;
5217;SDS011;26539;51.064;6.346;2023-11-21T04:22:25;67.70;;;32.23;;
5217;SDS011;26539;51.064;6.346;2023-11-21T04:24:51;61.57;;;31.63;;
5217;SDS011;26539;51.064;6.346;2023-11-21T04:27:16;77.10;;;33.33;;
5217;SDS011;26539;51.064;6.346;2023-11-21T04:29:44;63.20;;;33.73;;
5217;SDS011;26539;51.064;6.346;2023-11-21T04:32:10;56.83;;;29.93;;
5217;SDS011;26539;51.064;6.346;2023-11-21T04:34:35;57.43;;;32.17;;
5217;SDS011;26539;51.064;6.346;2023-11-21T04:37:01;48.97;;;26.90;;
5217;SDS011;26539;51.064;6.346;2023-11-21T04:39:28;49.77;;;26.50;;
5217;SDS011;26539;51.064;6.346;2023-11-21T04:41:53;51.67;;;28.83;;
5217;SDS011;26539;51.064;6.346;2023-11-21T04:44:19;49.47;;;26.50;;
5217;SDS011;26539;51.064;6.346;2023-11-21T04:46:44;52.77;;;27.07;;
5217;SDS011;26539;51.064;6.346;2023-11-21T04:49:10;46.37;;;25.60;;
5217;SDS011;26539;51.064;6.346;2023-11-21T04:51:36;57.87;;;27.83;;
5217;SDS011;26539;51.064;6.346;2023-11-21T04:54:01;44.17;;;24.70;;
5217;SDS011;26539;51.064;6.346;2023-11-21T04:56:27;44.90;;;27.33;;
5217;SDS011;26539;51.064;6.346;2023-11-21T04:58:53;46.97;;;24.53;;
5217;SDS011;26539;51.064;6.346;2023-11-21T05:01:18;48.87;;;26.37;;
5217;SDS011;26539;51.064;6.346;2023-11-21T05:03:44;43.90;;;25.37;;
5217;SDS011;26539;51.064;6.346;2023-11-21T05:06:10;46.03;;;25.57;;
5217;SDS011;26539;51.064;6.346;2023-11-21T05:08:35;41.17;;;26.50;;
5217;SDS011;26539;51.064;6.346;2023-11-21T05:11:02;51.77;;;27.27;;
5217;SDS011;26539;51.064;6.346;2023-11-21T05:13:27;49.37;;;25.13;;
5217;SDS011;26539;51.064;6.346;2023-11-21T05:15:54;40.27;;;24.37;;
5217;SDS011;26539;51.064;6.346;2023-11-21T05:18:21;41.40;;;23.97;;
5217;SDS011;26539;51.064;6.346;2023-11-21T05:20:47;48.77;;;26.03;;
5217;SDS011;26539;51.064;6.346;2023-11-21T05:23:13;48.37;;;24.93;;
5217;SDS011;26539;51.064;6.346;2023-11-21T05:25:39;44.33;;;24.47;;
5217;SDS011;26539;51.064;6.346;2023-11-21T05:28:06;39.67;;;23.07;;
5217;SDS011;26539;51.064;6.346;2023-11-21T05:30:31;40.40;;;24.30;;
5217;SDS011;26539;51.064;6.346;2023-11-21T05:32:57;37.73;;;23.40;;
5217;SDS011;26539;51.064;6.346;2023-11-21T05:35:23;43.17;;;24.20;;
5217;SDS011;26539;51.064;6.346;2023-11-21T05:37:48;42.73;;;23.60;;
5217;SDS011;26539;51.064;6.346;2023-11-21T05:40:14;45.53;;;25.00;;
5217;SDS011;26539;51.064;6.346;2023-11-21T05:42:40;40.87;;;22.90;;
5217;SDS011;26539;51.064;6.346;2023-11-21T05:45:05;37.37;;;23.90;;
5217;SDS011;26539;51.064;6.346;2023-11-21T05:47:39;43.83;;;24.90;;
5217;SDS011;26539;51.064;6.346;2023-11-21T05:50:06;38.93;;;22.87;;
5217;SDS011;26539;51.064;6.346;2023-11-21T05:52:35;41.13;;;22.37;;
5217;SDS011;26539;51.064;6.346;2023-11-21T05:55:02;45.90;;;24.77;;
5217;SDS011;26539;51.064;6.346;2023-11-21T05:57:29;39.20;;;22.77;;
5217;SDS011;26539;51.064;6.346;2023-11-21T05:59:55;37.33;;;22.67;;
5217;SDS011;26539;51.064;6.346;2023-11-21T06:02:21;42.80;;;22.50;;
5217;SDS011;26539;51.064;6.346;2023-11-21T06:04:46;43.87;;;24.00;;
5217;SDS011;26539;51.064;6.346;2023-11-21T06:07:12;41.57;;;23.00;;
5217;SDS011;26539;51.064;6.346;2023-11-21T06:09:37;44.37;;;23.40;;
5217;SDS011;26539;51.064;6.346;2023-11-21T06:12:03;45.10;;;21.70;;
5217;SDS011;26539;51.064;6.346;2023-11-21T06:14:29;46.47;;;25.13;;
5217;SDS011;26539;51.064;6.346;2023-11-21T06:16:54;43.87;;;23.10;;
5217;SDS011;26539;51.064;6.346;2023-11-21T06:19:21;45.70;;;22.97;;
5217;SDS011;26539;51.064;6.346;2023-11-21T06:21:47;40.93;;;23.40;;
5217;SDS011;26539;51.064;6.346;2023-11-21T06:24:12;45.17;;;25.07;;
5217;SDS011;26539;51.064;6.346;2023-11-21T06:26:40;49.20;;;24.37;;
5217;SDS011;26539;51.064;6.346;2023-11-21T06:29:06;47.57;;;26.77;;
5217;SDS011;26539;51.064;6.346;2023-11-21T06:31:32;56.23;;;27.17;;
5217;SDS011;26539;51.064;6.346;2023-11-21T06:33:57;47.73;;;25.70;;
5217;SDS011;26539;51.064;6.346;2023-11-21T06:36:24;50.50;;;27.30;;
5217;SDS011;26539;51.064;6.346;2023-11-21T06:38:51;62.53;;;28.17;;
5217;SDS011;26539;51.064;6.346;2023-11-21T06:41:17;57.37;;;27.30;;
5217;SDS011;26539;51.064;6.346;2023-11-21T06:43:42;57.93;;;27.97;;
5217;SDS011;26539;51.064;6.346;2023-11-21T06:46:11;66.13;;;30.57;;
5217;SDS011;26539;51.064;6.346;2023-11-21T06:48:39;61.23;;;29.07;;
5217;SDS011;26539;51.064;6.346;2023-11-21T06:51:08;67.40;;;30.37;;
5217;SDS011;26539;51.064;6.346;2023-11-21T06:53:34;62.00;;;28.30;;
5217;SDS011;26539;51.064;6.346;2023-11-21T06:56:01;67.17;;;29.37;;
5217;SDS011;26539;51.064;6.346;2023-11-21T06:58:27;74.23;;;34.73;;
5217;SDS011;26539;51.064;6.346;2023-11-21T07:00:52;72.00;;;29.70;;
5217;SDS011;26539;51.064;6.346;2023-11-21T07:03:18;65.97;;;29.43;;
5217;SDS011;26539;51.064;6.346;2023-11-21T07:05:44;72.97;;;30.23;;
5217;SDS011;26539;51.064;6.346;2023-11-21T07:08:10;65.33;;;30.03;;
5217;SDS011;26539;51.064;6.346;2023-11-21T07:10:35;72.20;;;28.30;;
5217;SDS011;26539;51.064;6.346;2023-11-21T07:13:01;61.43;;;29.00;;
5217;SDS011;26539;51.064;6.346;2023-11-21T07:15:27;68.00;;;29.37;;
5217;SDS011;26539;51.064;6.346;2023-11-21T07:17:53;75.60;;;31.77;;
5217;SDS011;26539;51.064;6.346;2023-11-21T07:20:19;76.60;;;31.60;;
5217;SDS011;26539;51.064;6.346;2023-11-21T07:22:44;78.83;;;31.37;;
5217;SDS011;26539;51.064;6.346;2023-11-21T07:25:10;73.80;;;33.63;;
5217;SDS011;26539;51.064;6.346;2023-11-21T07:27:36;71.33;;;30.17;;
5217;SDS011;26539;51.064;6.346;2023-11-21T07:30:02;73.63;;;29.77;;
5217;SDS011;26539;51.064;6.346;2023-11-21T07:32:32;72.10;;;30.43;;
5217;SDS011;26539;51.064;6.346;2023-11-21T07:34:58;65.50;;;29.80;;
5217;SDS011;26539;51.064;6.346;2023-11-21T07:37:26;70.20;;;30.27;;
5217;SDS011;26539;51.064;6.346;2023-11-21T07:39:53;66.43;;;29.10;;
5217;SDS011;26539;51.064;6.346;2023-11-21T07:42:21;62.63;;;30.27;;
5217;SDS011;26539;51.064;6.346;2023-11-21T07:44:48;68.47;;;30.70;;
5217;SDS011;26539;51.064;6.346;2023-11-21T07:47:15;74.17;;;31.53;;
5217;SDS011;26539;51.064;6.346;2023-11-21T07:49:40;67.00;;;27.43;;
5217;SDS011;26539;51.064;6.346;2023-11-21T07:52:08;69.57;;;26.67;;
5217;SDS011;26539;51.064;6.346;2023-11-21T07:54:34;59.00;;;28.07;;
5217;SDS011;26539;51.064;6.346;2023-11-21T07:57:00;54.07;;;25.03;;
5217;SDS011;26539;51.064;6.346;2023-11-21T07:59:26;57.73;;;25.60;;
5217;SDS011;26539;51.064;6.346;2023-11-21T08:01:52;56.67;;;25.53;;
5217;SDS011;26539;51.064;6.346;2023-11-21T08:04:20;60.30;;;25.53;;
5217;SDS011;26539;51.064;6.346;2023-11-21T08:06:49;65.77;;;23.70;;
5217;SDS011;26539;51.064;6.346;2023-11-21T08:09:15;58.73;;;24.50;;
5217;SDS011;26539;51.064;6.346;2023-11-21T08:11:42;60.23;;;26.77;;
5217;SDS011;26539;51.064;6.346;2023-11-21T08:14:11;71.53;;;26.50;;
5217;SDS011;26539;51.064;6.346;2023-11-21T08:16:37;78.13;;;26.93;;
5217;SDS011;26539;51.064;6.346;2023-11-21T08:19:03;66.70;;;26.70;;
5217;SDS011;26539;51.064;6.346;2023-11-21T08:21:31;67.97;;;26.17;;
5217;SDS011;26539;51.064;6.346;2023-11-21T08:23:57;73.47;;;26.83;;
5217;SDS011;26539;51.064;6.346;2023-11-21T08:26:28;56.53;;;23.93;;
5217;SDS011;26539;51.064;6.346;2023-11-21T08:29:04;55.73;;;21.97;;
5217;SDS011;26539;51.064;6.346;2023-11-21T08:31:31;46.03;;;19.80;;
5217;SDS011;26539;51.064;6.346;2023-11-21T08:34:02;59.37;;;23.40;;
5217;SDS011;26539;51.064;6.346;2023-11-21T08:36:28;53.23;;;21.63;;
5217;SDS011;26539;51.064;6.346;2023-11-21T08:38:57;51.67;;;22.17;;
5217;SDS011;26539;51.064;6.346;2023-11-21T08:41:23;57.83;;;20.43;;
5217;SDS011;26539;51.064;6.346;2023-11-21T08:43:55;64.13;;;21.80;;
5217;SDS011;26539;51.064;6.346;2023-11-21T08:46:23;53.00;;;22.23;;
5217;SDS011;26539;51.064;6.346;2023-11-21T08:48:56;57.90;;;21.90;;
5217;SDS011;26539;51.064;6.346;2023-11-21T08:51:31;60.03;;;22.57;;
5217;SDS011;26539;51.064;6.346;2023-11-21T08:53:59;58.60;;;23.97;;
5217;SDS011;26539;51.064;6.346;2023-11-21T08:56:27;53.70;;;21.57;;
5217;SDS011;26539;51.064;6.346;2023-11-21T08:59:01;44.80;;;17.60;;
5217;SDS011;26539;51.064;6.346;2023-11-21T09:01:30;49.93;;;18.00;;
5217;SDS011;26539;51.064;6.346;2023-11-21T09:03:56;51.53;;;19.20;;
5217;SDS011;26539;51.064;6.346;2023-11-21T09:06:25;53.60;;;19.73;;
5217;SDS011;26539;51.064;6.346;2023-11-21T09:08:51;41.40;;;19.67;;
5217;SDS011;26539;51.064;6.346;2023-11-21T09:11:17;42.23;;;17.20;;
5217;SDS011;26539;51.064;6.346;2023-11-21T09:13:42;46.33;;;18.10;;
5217;SDS011;26539;51.064;6.346;2023-11-21T09:16:08;51.20;;;22.00;;
5217;SDS011;26539;51.064;6.346;2023-11-21T09:18:34;58.53;;;21.43;;
5217;SDS011;26539;51.064;6.346;2023-11-21T09:20:59;58.07;;;21.00;;
5217;SDS011;26539;51.064;6.346;2023-11-21T09:23:25;50.77;;;20.73;;
5217;SDS011;26539;51.064;6.346;2023-11-21T09:25:53;55.80;;;22.03;;
5217;SDS011;26539;51.064;6.346;2023-11-21T09:28:31;53.80;;;21.47;;
5217;SDS011;26539;51.064;6.346;2023-11-21T09:31:07;56.63;;;21.40;;
5217;SDS011;26539;51.064;6.346;2023-11-21T09:33:34;58.50;;;20.77;;
5217;SDS011;26539;51.064;6.346;2023-11-21T09:36:00;40.73;;;18.07;;
5217;SDS011;26539;51.064;6.346;2023-11-21T09:38:29;48.17;;;18.77;;
5217;SDS011;26539;51.064;6.346;2023-11-21T09:40:55;41.77;;;18.40;;
5217;SDS011;26539;51.064;6.346;2023-11-21T09:43:23;43.07;;;16.03;;
5217;SDS011;26539;51.064;6.346;2023-11-21T09:45:56;41.97;;;16.80;;
5217;SDS011;26539;51.064;6.346;2023-11-21T09:48:29;48.00;;;17.97;;
5217;SDS011;26539;51.064;6.346;2023-11-21T09:50:55;46.77;;;18.20;;
5217;SDS011;26539;51.064;6.346;2023-11-21T09:53:22;43.50;;;17.70;;
5217;SDS011;26539;51.064;6.346;2023-11-21T09:55:50;47.13;;;17.17;;
5217;SDS011;26539;51.064;6.346;2023-11-21T09:58:19;39.73;;;17.60;;
5217;SDS011;26539;51.064;6.346;2023-11-21T10:00:51;49.50;;;18.63;;
5217;SDS011;26539;51.064;6.346;2023-11-21T10:03:18;37.77;;;17.30;;
5217;SDS011;26539;51.064;6.346;2023-11-21T10:05:44;47.10;;;19.53;;
5217;SDS011;26539;51.064;6.346;2023-11-21T10:08:13;49.70;;;19.10;;
5217;SDS011;26539;51.064;6.346;2023-11-21T10:10:45;39.43;;;18.13;;
5217;SDS011;26539;51.064;6.346;2023-11-21T10:13:13;41.07;;;17.77;;
5217;SDS011;26539;51.064;6.346;2023-11-21T10:15:42;38.10;;;16.00;;
5217;SDS011;26539;51.064;6.346;2023-11-21T10:18:13;33.83;;;17.00;;
5217;SDS011;26539;51.064;6.346;2023-11-21T10:20:40;32.73;;;16.23;;
5217;SDS011;26539;51.064;6.346;2023-11-21T10:23:06;30.97;;;15.97;;
5217;SDS011;26539;51.064;6.346;2023-11-21T10:25:36;38.53;;;17.67;;
5217;SDS011;26539;51.064;6.346;2023-11-21T10:28:02;44.40;;;19.20;;
5217;SDS011;26539;51.064;6.346;2023-11-21T10:30:33;39.40;;;18.93;;
5217;SDS011;26539;51.064;6.346;2023-11-21T10:33:02;42.87;;;20.20;;
5217;SDS011;26539;51.064;6.346;2023-11-21T10:35:45;41.83;;;20.80;;
5217;SDS011;26539;51.064;6.346;2023-11-21T10:41:46;46.47;;;19.73;;
5217;SDS011;26539;51.064;6.346;2023-11-21T10:44:26;41.33;;;20.33;;
5217;SDS011;26539;51.064;6.346;2023-11-21T10:46:59;40.60;;;19.80;;
5217;SDS011;26539;51.064;6.346;2023-11-21T10:49:26;40.97;;;20.40;;
5217;SDS011;26539;51.064;6.346;2023-11-21T10:51:55;38.10;;;19.60;;
5217;SDS011;26539;51.064;6.346;2023-11-21T10:54:22;38.97;;;18.20;;
5217;SDS011;26539;51.064;6.346;2023-11-21T11:00:06;34.53;;;16.67;;
5217;SDS011;26539;51.064;6.346;2023-11-21T11:02:32;35.27;;;17.23;;
5217;SDS011;26539;51.064;6.346;2023-11-21T11:04:59;30.37;;;15.20;;
5217;SDS011;26539;51.064;6.346;2023-11-21T11:07:39;32.10;;;15.00;;
5217;SDS011;26539;51.064;6.346;2023-11-21T11:10:08;29.13;;;14.40;;
5217;SDS011;26539;51.064;6.346;2023-11-21T11:15:47;40.27;;;16.57;;
5217;SDS011;26539;51.064;6.346;2023-11-21T11:18:30;31.77;;;16.00;;
5217;SDS011;26539;51.064;6.346;2023-11-21T11:21:18;38.17;;;14.73;;
5217;SDS011;26539;51.064;6.346;2023-11-21T11:32:08;26.90;;;13.23;;
5217;SDS011;26539;51.064;6.346;2023-11-21T11:35:01;23.53;;;13.40;;
5217;SDS011;26539;51.064;6.346;2023-11-21T11:37:35;27.60;;;14.73;;
5217;SDS011;26539;51.064;6.346;2023-11-21T11:40:00;31.43;;;14.60;;
5217;SDS011;26539;51.064;6.346;2023-11-21T11:42:30;29.63;;;14.40;;
5217;SDS011;26539;51.064;6.346;2023-11-21T11:44:57;36.23;;;14.73;;
5217;SDS011;26539;51.064;6.346;2023-11-21T11:47:27;29.73;;;14.53;;
5217;SDS011;26539;51.064;6.346;2023-11-21T11:55:06;27.47;;;13.70;;
5217;SDS011;26539;51.064;6.346;2023-11-21T11:57:36;26.17;;;12.70;;
5217;SDS011;26539;51.064;6.346;2023-11-21T12:02:49;28.37;;;12.27;;
5217;SDS011;26539;51.064;6.346;2023-11-21T12:05:20;23.57;;;12.23;;
5217;SDS011;26539;51.064;6.346;2023-11-21T12:07:47;27.20;;;12.63;;
5217;SDS011;26539;51.064;6.346;2023-11-21T12:10:17;19.40;;;12.47;;
5217;SDS011;26539;51.064;6.346;2023-11-21T12:12:48;20.40;;;11.33;;
5217;SDS011;26539;51.064;6.346;2023-11-21T12:15:15;19.60;;;10.87;;
5217;SDS011;26539;51.064;6.346;2023-11-21T12:17:41;20.10;;;11.13;;
5217;SDS011;26539;51.064;6.346;2023-11-21T12:20:11;21.93;;;11.60;;
5217;SDS011;26539;51.064;6.346;2023-11-21T12:25:18;21.90;;;11.80;;
5217;SDS011;26539;51.064;6.346;2023-11-21T12:27:48;20.60;;;12.50;;
5217;SDS011;26539;51.064;6.346;2023-11-21T12:30:15;23.33;;;12.60;;
5217;SDS011;26539;51.064;6.346;2023-11-21T12:32:43;21.43;;;13.23;;
5217;SDS011;26539;51.064;6.346;2023-11-21T12:35:10;18.77;;;11.90;;
5217;SDS011;26539;51.064;6.346;2023-11-21T12:37:40;20.20;;;11.57;;
5217;SDS011;26539;51.064;6.346;2023-11-21T12:40:09;18.60;;;10.40;;
5217;SDS011;26539;51.064;6.346;2023-11-21T12:42:42;22.97;;;11.87;;
5217;SDS011;26539;51.064;6.346;2023-11-21T12:47:52;19.80;;;11.40;;
5217;SDS011;26539;51.064;6.346;2023-11-21T12:50:32;24.97;;;10.00;;
5217;SDS011;26539;51.064;6.346;2023-11-21T12:53:03;24.30;;;10.87;;
5217;SDS011;26539;51.064;6.346;2023-11-21T12:55:33;19.87;;;10.40;;
5217;SDS011;26539;51.064;6.346;2023-11-21T12:58:03;28.30;;;11.70;;
5217;SDS011;26539;51.064;6.346;2023-11-21T13:00:44;24.10;;;12.50;;
5217;SDS011;26539;51.064;6.346;2023-11-21T13:03:12;24.60;;;11.70;;
5217;SDS011;26539;51.064;6.346;2023-11-21T13:05:41;22.73;;;11.80;;
5217;SDS011;26539;51.064;6.346;2023-11-21T13:08:09;24.33;;;12.40;;
5217;SDS011;26539;51.064;6.346;2023-11-21T13:10:41;22.23;;;12.47;;
5217;SDS011;26539;51.064;6.346;2023-11-21T13:13:10;25.50;;;15.23;;
5217;SDS011;26539;51.064;6.346;2023-11-21T13:16:07;26.97;;;14.90;;
5217;SDS011;26539;51.064;6.346;2023-11-21T13:18:34;44.33;;;25.00;;
5217;SDS011;26539;51.064;6.346;2023-11-21T13:21:05;27.37;;;16.17;;
5217;SDS011;26539;51.064;6.346;2023-11-21T13:23:42;28.80;;;15.40;;
5217;SDS011;26539;51.064;6.346;2023-11-21T13:26:10;35.10;;;21.17;;
5217;SDS011;26539;51.064;6.346;2023-11-21T13:28:37;36.57;;;20.57;;
5217;SDS011;26539;51.064;6.346;2023-11-21T13:31:03;32.43;;;21.00;;
5217;SDS011;26539;51.064;6.346;2023-11-21T13:33:45;37.03;;;22.00;;
5217;SDS011;26539;51.064;6.346;2023-11-21T13:36:19;42.10;;;24.70;;
5217;SDS011;26539;51.064;6.346;2023-11-21T13:38:47;41.50;;;23.23;;
5217;SDS011;26539;51.064;6.346;2023-11-21T13:41:17;37.27;;;23.30;;
5217;SDS011;26539;51.064;6.346;2023-11-21T13:43:53;35.77;;;21.97;;
5217;SDS011;26539;51.064;6.346;2023-11-21T13:46:28;35.83;;;21.47;;
5217;SDS011;26539;51.064;6.346;2023-11-21T13:48:53;34.23;;;20.67;;
5217;SDS011;26539;51.064;6.346;2023-11-21T13:51:21;29.37;;;18.10;;
5217;SDS011;26539;51.064;6.346;2023-11-21T13:53:55;25.67;;;14.17;;
5217;SDS011;26539;51.064;6.346;2023-11-21T13:56:21;25.57;;;16.40;;
5217;SDS011;26539;51.064;6.346;2023-11-21T13:58:51;29.40;;;14.73;;
5217;SDS011;26539;51.064;6.346;2023-11-21T14:01:18;28.40;;;14.93;;
5217;SDS011;26539;51.064;6.346;2023-11-21T14:04:09;27.17;;;14.03;;
5217;SDS011;26539;51.064;6.346;2023-11-21T14:06:38;24.70;;;13.00;;
5217;SDS011;26539;51.064;6.346;2023-11-21T14:11:49;24.27;;;11.87;;
5217;SDS011;26539;51.064;6.346;2023-11-21T14:14:21;24.80;;;11.63;;
5217;SDS011;26539;51.064;6.346;2023-11-21T14:16:49;20.10;;;11.77;;
5217;SDS011;26539;51.064;6.346;2023-11-21T14:19:16;23.13;;;11.03;;
5217;SDS011;26539;51.064;6.346;2023-11-21T14:21:45;21.17;;;11.50;;
5217;SDS011;26539;51.064;6.346;2023-11-21T14:24:11;24.80;;;11.53;;
5217;SDS011;26539;51.064;6.346;2023-11-21T14:26:38;14.50;;;9.20;;
5217;SDS011;26539;51.064;6.346;2023-11-21T14:29:07;15.50;;;9.37;;
5217;SDS011;26539;51.064;6.346;2023-11-21T14:31:33;16.90;;;10.07;;
5217;SDS011;26539;51.064;6.346;2023-11-21T14:33:59;17.43;;;9.60;;
5217;SDS011;26539;51.064;6.346;2023-11-21T14:36:27;16.10;;;8.50;;
5217;SDS011;26539;51.064;6.346;2023-11-21T14:38:53;16.47;;;10.00;;
5217;SDS011;26539;51.064;6.346;2023-11-21T14:41:19;19.00;;;9.83;;
5217;SDS011;26539;51.064;6.346;2023-11-21T14:43:44;21.93;;;11.53;;
5217;SDS011;26539;51.064;6.346;2023-11-21T14:46:12;21.43;;;10.50;;
5217;SDS011;26539;51.064;6.346;2023-11-21T14:48:42;16.77;;;10.57;;
5217;SDS011;26539;51.064;6.346;2023-11-21T14:51:10;17.73;;;10.27;;
5217;SDS011;26539;51.064;6.346;2023-11-21T14:53:58;19.20;;;10.30;;
5217;SDS011;26539;51.064;6.346;2023-11-21T14:56:31;18.27;;;11.60;;
5217;SDS011;26539;51.064;6.346;2023-11-21T14:59:02;25.03;;;12.97;;
5217;SDS011;26539;51.064;6.346;2023-11-21T15:01:37;21.87;;;12.33;;
5217;SDS011;26539;51.064;6.346;2023-11-21T15:04:18;24.60;;;12.87;;
5217;SDS011;26539;51.064;6.346;2023-11-21T15:07:06;23.40;;;11.80;;
5217;SDS011;26539;51.064;6.346;2023-11-21T15:09:32;22.13;;;12.57;;
5217;SDS011;26539;51.064;6.346;2023-11-21T15:11:58;22.20;;;13.17;;
5217;SDS011;26539;51.064;6.346;2023-11-21T15:14:43;21.80;;;13.00;;